Time;durP1;ratioP1;P1;durP2;ratioP2;P2;SDS_P1;SDS_P2;PMS_P1;PMS_P2;Temp;Humidity;BMP_temperature;BMP_pressure;BME280_temperature;BME280_humidity;BME280_pressure;Samples;Min_cycle;Max_cycle;Signal;HPM_P1;HPM_P2
2021/10/17 00:01:15;;;;;;;10.82;9.08;;;;;;;9.86;89.49;94655.58;826181;71;33169;-76
2021/10/17 00:16:14;;;;;;;10.68;9.55;;;;;;;9.85;89.66;94662.64;815080;71;32862;-81
2021/10/17 00:31:14;;;;;;;12.70;10.25;;;;;;;9.78;89.73;94666.91;827984;71;32665;-74
2021/10/17 00:46:19;;;;;;;13.98;11.68;;;;;;;9.75;89.79;94671.41;834204;71;32402;-77
2021/10/17 01:01:08;;;;;;;15.08;12.00;;;;;;;9.74;89.93;94669.06;828734;71;29742;-77
2021/10/17 01:16:10;;;;;;;14.95;11.65;;;;;;;9.71;89.82;94666.98;828093;71;30782;-79
2021/10/17 01:31:09;;;;;;;16.80;11.83;;;;;;;9.70;89.92;94658.88;830251;71;29729;-76
2021/10/17 01:46:19;;;;;;;14.58;11.20;;;;;;;9.70;89.89;94655.73;828026;71;32830;-76
2021/10/17 02:01:09;;;;;;;13.85;11.25;;;;;;;9.74;89.68;94659.35;828358;71;29713;-77
2021/10/17 02:16:08;;;;;;;14.55;11.48;;;;;;;9.74;89.56;94646.25;828220;71;29708;-76
2021/10/17 02:31:14;;;;;;;16.15;13.00;;;;;;;9.73;89.38;94651.77;827588;71;33224;-76
2021/10/17 02:46:14;;;;;;;20.52;14.33;;;;;;;9.72;89.11;94664.63;834038;71;32732;-74
2021/10/17 03:16:10;;;;;;;16.77;13.08;;;;;;;9.76;89.18;94672.19;828342;71;29501;-75
2021/10/17 03:31:08;;;;;;;18.55;13.90;;;;;;;9.80;89.06;94674.50;821058;71;29576;-78
2021/10/17 03:46:15;;;;;;;17.17;13.48;;;;;;;9.85;88.94;94675.74;827292;71;33291;-80
2021/10/17 04:01:15;;;;;;;18.75;13.90;;;;;;;9.90;89.01;94672.31;827348;71;32728;-77
2021/10/17 04:16:08;;;;;;;16.75;13.53;;;;;;;9.94;88.84;94684.57;809262;71;29649;-76
2021/10/17 04:31:15;;;;;;;19.95;14.87;;;;;;;9.94;88.24;94688.50;827030;71;33279;-78
2021/10/17 04:46:16;;;;;;;19.75;14.03;;;;;;;9.90;87.81;94701.91;826447;71;33226;-78
2021/10/17 05:01:20;;;;;;;21.73;16.00;;;;;;;9.90;87.49;94715.02;826975;71;32726;-81
2021/10/17 05:16:09;;;;;;;24.57;16.82;;;;;;;9.92;87.28;94729.94;834562;71;29985;-78
2021/10/17 05:31:09;;;;;;;24.12;16.93;;;;;;;10.02;87.24;94739.55;828232;71;30276;-76
2021/10/17 05:46:14;;;;;;;25.23;16.60;;;;;;;10.08;86.87;94738.44;827464;71;33182;-75
2021/10/17 06:01:08;;;;;;;22.42;16.27;;;;;;;10.16;86.64;94759.34;828210;71;30192;-75
2021/10/17 06:16:09;;;;;;;25.65;17.65;;;;;;;10.30;86.59;94777.83;833889;71;30916;-75
2021/10/17 06:31:15;;;;;;;31.00;19.87;;;;;;;10.66;86.13;94780.84;830952;71;32671;-76
2021/10/17 06:46:13;;;;;;;27.17;19.30;;;;;;;11.14;84.86;94778.14;827950;71;32547;-77
2021/10/17 07:01:08;;;;;;;28.90;19.05;;;;;;;11.77;83.86;94790.63;834628;71;29760;-77
2021/10/17 07:16:09;;;;;;;26.37;18.30;;;;;;;13.30;80.32;94798.11;819023;71;31001;-77
2021/10/17 07:31:08;;;;;;;22.95;16.62;;;;;;;14.27;75.97;94820.13;824933;70;29830;-76
2021/10/17 07:46:19;;;;;;;21.10;16.82;;;;;;;14.39;72.75;94819.80;820093;71;32780;-77
2021/10/17 08:01:08;;;;;;;20.15;15.90;;;;;;;14.64;72.30;94821.59;833571;71;29806;-75
2021/10/17 08:16:08;;;;;;;18.48;15.35;;;;;;;15.25;70.38;94825.73;827922;71;29906;-75
2021/10/17 08:31:14;;;;;;;17.95;14.03;;;;;;;16.07;68.37;94807.94;828318;71;32817;-77
2021/10/17 08:46:15;;;;;;;17.00;12.60;;;;;;;16.63;65.84;94810.05;834720;71;29730;-76
2021/10/17 09:16:12;;;;;;;15.48;12.75;;;;;;;16.45;64.26;94817.27;824263;71;30344;-78
2021/10/17 09:31:20;;;;;;;13.32;11.90;;;;;;;16.47;64.02;94807.13;828182;71;32029;-73
2021/10/17 09:46:14;;;;;;;13.10;11.33;;;;;;;16.50;63.24;94800.41;827726;71;30859;-76
2021/10/17 10:01:13;;;;;;;15.08;12.60;;;;;;;16.43;62.37;94796.39;829012;71;32127;-74
2021/10/17 10:16:17;;;;;;;14.20;11.53;;;;;;;16.57;63.10;94780.84;833651;71;32793;-74
2021/10/17 10:31:37;;;;;;;15.13;13.03;;;;;;;16.51;63.00;94768.31;827188;71;32723;-76
2021/10/17 10:46:10;;;;;;;18.98;14.35;;;;;;;16.26;63.71;94746.14;827670;71;30278;-77
2021/10/17 11:01:10;;;;;;;18.75;13.35;;;;;;;16.45;63.76;94754.25;819091;71;29726;-76
2021/10/17 11:16:22;;;;;;;14.83;12.95;;;;;;;16.70;63.04;94744.63;826760;71;32821;-76
2021/10/17 11:31:17;;;;;;;14.10;10.70;;;;;;;16.92;61.85;94744.36;827179;71;32777;-75
2021/10/17 11:46:18;;;;;;;10.72;8.95;;;;;;;16.97;61.06;94735.44;827134;71;32779;-75
2021/10/17 12:01:15;;;;;;;9.45;7.83;;;;;;;17.29;60.58;94724.69;833856;71;30335;-76
2021/10/17 12:16:11;;;;;;;9.38;8.48;;;;;;;17.45;60.36;94722.22;825282;71;30269;-74
2021/10/17 12:31:16;;;;;;;12.78;10.93;;;;;;;17.44;60.12;94719.35;827902;71;33212;-75
2021/10/17 12:46:14;;;;;;;8.88;7.90;;;;;;;17.23;59.42;94718.02;834019;71;30222;-74
2021/10/17 13:01:14;;;;;;;10.70;8.60;;;;;;;17.11;60.61;94724.06;828287;71;29775;-75
2021/10/17 13:16:16;;;;;;;10.43;9.15;;;;;;;16.81;61.07;94716.14;821803;71;32801;-76
2021/10/17 13:31:08;;;;;;;10.45;8.88;;;;;;;16.53;62.97;94726.39;826509;71;29719;-74
2021/10/17 13:46:10;;;;;;;11.05;9.85;;;;;;;16.19;64.39;94722.02;819698;71;30201;-74
2021/10/17 14:01:18;;;;;;;8.78;7.87;;;;;;;15.82;65.25;94730.37;821974;71;29805;-76
2021/10/17 14:16:19;;;;;;;5.85;5.35;;;;;;;15.13;65.57;94738.33;828482;71;32679;-77
2021/10/17 14:31:09;;;;;;;5.87;5.37;;;;;;;14.85;66.26;94743.88;834076;71;29742;-73
2021/10/17 14:46:16;;;;;;;6.47;5.87;;;;;;;14.60;66.26;94750.11;826858;71;32684;-76
2021/10/17 15:16:15;;;;;;;7.22;6.35;;;;;;;13.92;68.87;94772.44;827235;71;32681;-76
2021/10/17 15:31:10;;;;;;;8.55;7.55;;;;;;;13.58;70.28;94772.44;827261;71;29931;-74
2021/10/17 15:46:09;;;;;;;10.05;8.85;;;;;;;13.45;71.06;94787.78;833817;71;29745;-75
2021/10/17 16:01:14;;;;;;;19.35;12.78;;;;;;;13.32;71.89;94800.70;812551;71;31823;-75
2021/10/17 16:16:08;;;;;;;26.17;17.95;;;;;;;13.27;72.28;94811.31;828106;71;28695;-77
2021/10/17 16:31:17;;;;;;;10.75;9.55;;;;;;;13.21;72.81;94834.35;827229;71;31728;-79
2021/10/17 16:46:14;;;;;;;8.48;7.55;;;;;;;13.16;73.20;94842.92;833578;71;31614;-76
2021/10/17 17:01:10;;;;;;;11.00;9.43;;;;;;;13.11;73.58;94842.47;827986;71;29258;-78
2021/10/17 17:16:15;;;;;;;24.57;18.17;;;;;;;13.05;73.94;94848.91;828773;71;31754;-77
2021/10/17 17:31:10;;;;;;;23.47;18.05;;;;;;;12.96;74.52;94850.14;824314;71;29352;-77
2021/10/17 17:46:17;;;;;;;21.37;15.83;;;;;;;12.88;74.63;94859.28;828659;71;28703;-78
2021/10/17 18:01:09;;;;;;;31.27;22.15;;;;;;;12.80;75.23;94862.82;828488;71;28701;-75
2021/10/17 18:16:18;;;;;;;16.42;12.82;;;;;;;12.75;75.54;94875.30;828010;71;32234;-77
2021/10/17 18:31:15;;;;;;;15.93;11.28;;;;;;;12.63;75.72;94881.03;827645;71;31704;-81
2021/10/17 18:46:10;;;;;;;16.12;12.18;;;;;;;12.55;76.49;94873.29;834112;71;28711;-78
2021/10/17 19:01:15;;;;;;;22.85;17.12;;;;;;;12.48;77.19;94879.99;827372;71;31777;-79
2021/10/17 19:16:15;;;;;;;17.20;13.90;;;;;;;12.47;77.16;94889.75;833873;71;31756;-79
2021/10/17 19:31:13;;;;;;;19.12;14.45;;;;;;;12.52;77.69;94898.86;828304;71;30987;-78
2021/10/17 19:46:09;;;;;;;25.30;18.85;;;;;;;12.46;78.62;94905.28;820242;71;29720;-78
2021/10/17 20:01:24;;;;;;;26.75;18.40;;;;;;;12.42;79.01;94902.44;825620;71;30318;-78
2021/10/17 20:16:10;;;;;;;25.40;18.95;;;;;;;12.37;79.52;94909.11;828033;71;30359;-78
2021/10/17 20:31:15;;;;;;;26.05;21.20;;;;;;;12.37;80.17;94904.39;828756;71;32781;-77
2021/10/17 20:46:15;;;;;;;31.05;22.55;;;;;;;12.38;80.50;94915.92;833908;71;32701;-76
2021/10/17 21:16:09;;;;;;;27.32;21.37;;;;;;;12.38;80.49;94923.82;828202;71;30267;-78
2021/10/17 21:31:13;;;;;;;26.25;19.55;;;;;;;12.33;80.37;94923.14;828209;71;32314;-76
2021/10/17 21:46:09;;;;;;;22.37;17.23;;;;;;;12.27;80.12;94923.75;828414;71;30591;-76
2021/10/17 22:01:15;;;;;;;21.62;16.77;;;;;;;12.26;80.28;94931.92;828426;71;32780;-79
2021/10/17 22:16:08;;;;;;;24.32;16.57;;;;;;;12.22;79.85;94935.66;828466;71;30166;-76
2021/10/17 22:31:09;;;;;;;23.20;16.82;;;;;;;12.19;79.90;94931.75;833990;71;29706;-76
2021/10/17 22:46:09;;;;;;;25.97;17.12;;;;;;;12.20;80.07;94931.22;828149;71;30336;-77
2021/10/17 23:01:16;;;;;;;22.80;17.65;;;;;;;12.15;80.60;94930.77;828261;71;32668;-78
2021/10/17 23:16:08;;;;;;;22.65;16.27;;;;;;;12.13;80.69;94937.39;828556;71;29800;-80
2021/10/17 23:31:16;;;;;;;24.50;16.73;;;;;;;12.11;80.70;94937.66;827457;71;32786;-79
2021/10/17 23:46:12;;;;;;;23.57;17.57;;;;;;;12.09;80.92;94942.43;828421;71;32024;-77
